»·PEaware :: FFT250 KABQ-KELP

FFT250 :: KABQ-KELP

FLIGHT INFORMATION

Flight Status: Arrived
Operator:
Frontier Airlines
More flights by this operator :: More flights under this callsign
Pilot: Andrew J. (13363)
Aircraft: AIRBUS A320
(A320)
More flights by this aircraft type
Origin: KABQ Albuquerque Intl Sunport
United States
Destination: KELP El Paso Intl
United States
More flights between these airports :: More routes between these airports
Route: +MNZNO3 ONM GREBE MOLLY4
File this flight plan on PilotEdge
Remarks: PBN / A1B1C1D1O1S1 NAV / RNVD1E2A1 DOF / 181014 REG / N320SB OPR / FFT PER / C RMK / TCAS SIMBRIEF
Altitude:
(Current/Filed)
35,000ft
Speed:
(Current/Filed)
469kts
Departed: 13-Oct-18 08:38 PM
Arrived: 13-Oct-18 09:25 PM
Distance/Time
Traveled:
195nm/0:47
Distance/Time
To Go:
Arrived

Flight Plot

Page will automatically refresh every two minutes.

Flight plan parsing failed; only flown route is shown


Map Options




Map Legend


Flown Route
Filed Route
Departure Airport
Arrival Airport
Navaid (VOR, NDB)
Fix

Horizontal Profiles

Position Reports

Time Latitude Longitude Heading Altitude Ground
Speed
13-Oct-18 20:17 35.047900 -106.618154 174 5318ft 0kts
13-Oct-18 20:18 35.047900 -106.618154 174 5318ft 0kts
13-Oct-18 20:19 35.047900 -106.618154 174 5318ft 0kts
13-Oct-18 20:20 35.047900 -106.618154 174 5318ft 0kts
13-Oct-18 20:21 35.047900 -106.618154 174 5318ft 0kts
13-Oct-18 20:22 35.047900 -106.618154 174 5318ft 0kts
13-Oct-18 20:23 35.047900 -106.618154 174 5318ft 0kts
13-Oct-18 20:24 35.047900 -106.618154 174 5318ft 0kts
13-Oct-18 20:25 35.047900 -106.618154 174 5318ft 0kts
13-Oct-18 20:26 35.047900 -106.618154 174 5318ft 0kts
13-Oct-18 20:27 35.047900 -106.618154 174 5318ft 0kts
13-Oct-18 20:28 35.047900 -106.618154 174 5318ft 0kts
13-Oct-18 20:29 35.048011 -106.618216 143 5318ft 2kts
13-Oct-18 20:30 35.048551 -106.618119 218 5318ft 2kts
13-Oct-18 20:31 35.048535 -106.618803 270 5318ft 0kts
13-Oct-18 20:32 35.048535 -106.618804 270 5318ft 0kts
13-Oct-18 20:33 35.048535 -106.618804 270 5318ft 0kts
13-Oct-18 20:34 35.048535 -106.618804 270 5318ft 0kts
13-Oct-18 20:35 35.047872 -106.619530 183 5318ft 11kts
13-Oct-18 20:36 35.045502 -106.621199 235 5318ft 6kts
13-Oct-18 20:37 35.045278 -106.621375 190 5318ft 0kts
13-Oct-18 20:38 35.045278 -106.621375 190 5318ft 0kts
13-Oct-18 20:39 35.044387 -106.621419 177 5318ft 1kts
13-Oct-18 20:40 35.044273 -106.609840 89 5318ft 134kts
13-Oct-18 20:41 35.035570 -106.551672 142 7223ft 186kts
13-Oct-18 20:42 34.991245 -106.515028 157 8850ft 244kts
13-Oct-18 20:43 34.916947 -106.514882 182 9269ft 281kts
13-Oct-18 20:44 34.838123 -106.517805 180 12042ft 294kts
13-Oct-18 20:45 34.760645 -106.552816 211 14093ft 333kts
13-Oct-18 20:46 34.676407 -106.618712 211 15081ft 385kts
13-Oct-18 20:47 34.584939 -106.689823 211 16920ft 398kts
13-Oct-18 20:48 34.492400 -106.761051 212 19344ft 388kts
13-Oct-18 20:49 34.388083 -106.802884 201 20893ft 403kts
13-Oct-18 20:50 34.296534 -106.872322 228 22274ft 394kts
13-Oct-18 20:51 34.218788 -106.967152 228 23558ft 401kts
13-Oct-18 20:52 34.139863 -107.063112 228 24738ft 407kts
13-Oct-18 20:53 34.059819 -107.160183 228 25875ft 410kts
13-Oct-18 20:54 33.979158 -107.257735 228 26895ft 414kts
13-Oct-18 20:55 33.898025 -107.355584 228 27783ft 417kts
13-Oct-18 20:56 33.816151 -107.454032 228 28764ft 415kts
13-Oct-18 20:57 33.735497 -107.550729 228 29868ft 409kts
13-Oct-18 20:58 33.655840 -107.645981 228 30940ft 402kts
13-Oct-18 20:59 33.577950 -107.738867 228 32027ft 396kts
13-Oct-18 21:00 33.500210 -107.831326 228 33031ft 391kts
13-Oct-18 21:01 33.423754 -107.922020 228 33919ft 386kts
13-Oct-18 21:02 33.347906 -108.011734 227 34621ft 384kts
13-Oct-18 21:03 33.252769 -108.072340 199 35058ft 408kts
13-Oct-18 21:04 33.137021 -108.057572 165 35059ft 451kts
13-Oct-18 21:05 33.034601 -107.961686 147 35056ft 479kts
13-Oct-18 21:06 32.936729 -107.854621 147 35058ft 480kts
13-Oct-18 21:07 32.839654 -107.749285 147 34690ft 480kts
13-Oct-18 21:08 32.741793 -107.643481 147 32944ft 481kts
13-Oct-18 21:09 32.642040 -107.536036 145 29617ft 496kts
13-Oct-18 21:10 32.539613 -107.425966 144 26297ft 500kts
13-Oct-18 21:11 32.436904 -107.315951 144 23272ft 492kts
13-Oct-18 21:12 32.337750 -107.210033 143 20383ft 465kts
13-Oct-18 21:13 32.245029 -107.111895 143 16562ft 438kts
13-Oct-18 21:14 32.154986 -107.017572 140 14028ft 420kts
13-Oct-18 21:15 32.102066 -106.895807 105 12562ft 432kts
13-Oct-18 21:16 32.073587 -106.766483 107 11055ft 367kts
13-Oct-18 21:17 32.048011 -106.660996 108 10338ft 316kts
13-Oct-18 21:18 32.024997 -106.567765 108 9402ft 281kts
13-Oct-18 21:19 32.003616 -106.483969 121 9037ft 260kts
13-Oct-18 21:20 31.963169 -106.414342 128 9007ft 258kts
13-Oct-18 21:21 31.922092 -106.344703 128 8807ft 262kts
13-Oct-18 21:22 31.881027 -106.275076 128 7478ft 251kts
13-Oct-18 21:23 31.830936 -106.237513 194 6290ft 203kts
13-Oct-18 21:24 31.797486 -106.281093 265 5287ft 180kts
13-Oct-18 21:25 31.799464 -106.332218 268 4463ft 146kts
13-Oct-18 21:26 31.801469 -106.377184 273 3945ft 93kts
13-Oct-18 21:27 31.801845 -106.387754 205 3944ft 4kts
13-Oct-18 21:28 31.799930 -106.390098 286 3944ft 14kts
13-Oct-18 21:29 31.801376 -106.393829 271 3944ft 12kts
13-Oct-18 21:30 31.801443 -106.397399 246 3944ft 8kts
13-Oct-18 21:31 31.800625 -106.397360 167 3944ft 0kts
13-Oct-18 21:32 31.800625 -106.397360 167 3944ft 0kts
13-Oct-18 21:33 31.800625 -106.397360 167 3944ft 0kts
13-Oct-18 21:34 31.800625 -106.397360 167 3944ft 0kts
13-Oct-18 21:35 31.800625 -106.397360 167 3944ft 0kts
13-Oct-18 21:36 31.800625 -106.397360 167 3944ft 0kts

Navigation Log

Ident Type
Flight plan parsing failed, navigation log unavailable